Time;durP1;ratioP1;P1;durP2;ratioP2;P2;SDS_P1;SDS_P2;PMS_P1;PMS_P2;Temp;Humidity;BMP_temperature;BMP_pressure;BME280_temperature;BME280_humidity;BME280_pressure;Samples;Min_cycle;Max_cycle;Signal;HPM_P1;HPM_P2
2022/08/29 00:00:17;;;;;;;7.23;2.73;;;;;;;;;;5036459;28;20472;-79
2022/08/29 00:02:44;;;;;;;4.07;2.70;;;;;;;;;;5036981;28;20450;-80
2022/08/29 00:05:11;;;;;;;3.07;2.50;;;;;;;;;;5037573;28;20535;-80
2022/08/29 00:07:38;;;;;;;3.93;2.67;;;;;;;;;;5037198;28;20522;-79
2022/08/29 00:10:08;;;;;;;4.63;2.53;;;;;;;;;;5037129;28;20481;-78
2022/08/29 00:12:35;;;;;;;4.03;2.67;;;;;;;;;;5036736;28;20812;-78
2022/08/29 00:15:03;;;;;;;7.83;2.80;;;;;;;;;;5036608;28;20475;-78
2022/08/29 00:17:30;;;;;;;5.73;2.80;;;;;;;;;;5036700;28;20851;-77
2022/08/29 00:19:57;;;;;;;11.63;3.10;;;;;;;;;;5036839;28;20631;-78
2022/08/29 00:22:24;;;;;;;2.60;2.33;;;;;;;;;;5037066;28;20448;-80
2022/08/29 00:24:52;;;;;;;4.47;2.50;;;;;;;;;;5036109;28;20482;-77
2022/08/29 00:27:20;;;;;;;3.20;2.67;;;;;;;;;;5035979;28;20958;-78
2022/08/29 00:29:47;;;;;;;4.77;3.00;;;;;;;;;;5035753;28;20547;-77
2022/08/29 00:32:15;;;;;;;3.60;2.40;;;;;;;;;;5036151;28;20534;-77
2022/08/29 00:34:42;;;;;;;7.10;3.20;;;;;;;;;;5035719;28;20908;-78
2022/08/29 00:37:09;;;;;;;6.67;2.73;;;;;;;;;;5035673;28;20498;-77
2022/08/29 00:39:36;;;;;;;5.07;2.63;;;;;;;;;;5035996;28;20487;-78
2022/08/29 00:42:04;;;;;;;7.93;2.87;;;;;;;;;;5035936;28;20851;-80
2022/08/29 00:44:33;;;;;;;4.50;2.50;;;;;;;;;;5035898;28;20965;-79
2022/08/29 00:47:03;;;;;;;9.83;3.60;;;;;;;;;;5035533;28;20448;-79
2022/08/29 00:49:35;;;;;;;4.63;2.87;;;;;;;;;;5035604;28;20437;-79
2022/08/29 00:52:06;;;;;;;3.53;2.37;;;;;;;;;;5035982;28;20435;-79
2022/08/29 00:54:33;;;;;;;5.40;3.33;;;;;;;;;;5035302;28;20470;-78
2022/08/29 00:57:01;;;;;;;3.33;2.43;;;;;;;;;;5036481;28;20492;-78
2022/08/29 00:59:31;;;;;;;9.30;3.10;;;;;;;;;;5035390;28;20455;-79
2022/08/29 01:02:00;;;;;;;3.40;2.77;;;;;;;;;;5035660;28;20429;-80
2022/08/29 01:04:28;;;;;;;10.00;3.60;;;;;;;;;;5035854;28;20489;-80
2022/08/29 01:06:56;;;;;;;6.03;2.90;;;;;;;;;;5035557;28;20443;-80
2022/08/29 01:09:24;;;;;;;5.10;2.97;;;;;;;;;;5034988;28;20486;-80
2022/08/29 01:14:37;;;;;;;9.67;3.30;;;;;;;;;;5034980;28;20455;-79
2022/08/29 01:17:07;;;;;;;7.93;3.37;;;;;;;;;;5035285;28;20450;-78
2022/08/29 01:19:42;;;;;;;7.23;4.53;;;;;;;;;;5035213;28;20439;-79
2022/08/29 01:22:14;;;;;;;8.37;3.80;;;;;;;;;;5035155;28;20534;-79
2022/08/29 01:24:49;;;;;;;5.30;3.00;;;;;;;;;;5035099;28;20423;-78
2022/08/29 01:27:17;;;;;;;4.80;3.73;;;;;;;;;;5035268;28;20434;-78
2022/08/29 01:29:44;;;;;;;3.67;3.37;;;;;;;;;;5034651;28;20533;-78
2022/08/29 01:32:12;;;;;;;6.03;3.60;;;;;;;;;;5035030;28;20438;-79
2022/08/29 01:34:40;;;;;;;4.00;3.20;;;;;;;;;;5035001;28;20913;-78
2022/08/29 01:37:08;;;;;;;8.80;3.53;;;;;;;;;;5034633;28;20927;-78
2022/08/29 01:39:36;;;;;;;4.10;3.27;;;;;;;;;;5034897;28;20812;-79
2022/08/29 01:42:08;;;;;;;3.80;2.80;;;;;;;;;;5034543;28;20434;-80
2022/08/29 01:44:36;;;;;;;5.40;3.80;;;;;;;;;;5034450;28;20909;-79
2022/08/29 01:47:03;;;;;;;7.77;3.47;;;;;;;;;;5034692;28;20976;-79
2022/08/29 01:49:31;;;;;;;4.53;3.20;;;;;;;;;;5034246;28;20448;-79
2022/08/29 01:51:58;;;;;;;4.50;3.73;;;;;;;;;;5034667;28;20475;-79
2022/08/29 01:54:26;;;;;;;3.33;3.03;;;;;;;;;;5034193;28;20482;-78
2022/08/29 01:56:53;;;;;;;6.80;3.47;;;;;;;;;;5034281;28;20531;-78
2022/08/29 01:59:25;;;;;;;16.33;3.57;;;;;;;;;;5034442;28;20453;-78
2022/08/29 02:01:55;;;;;;;4.77;3.23;;;;;;;;;;5034770;28;20463;-77
2022/08/29 02:04:22;;;;;;;6.90;3.63;;;;;;;;;;5034034;28;20438;-77
2022/08/29 02:06:50;;;;;;;4.10;3.10;;;;;;;;;;5033979;28;20931;-76
2022/08/29 02:09:17;;;;;;;7.93;3.27;;;;;;;;;;5034076;28;20491;-76
2022/08/29 02:11:45;;;;;;;3.50;2.80;;;;;;;;;;5033448;28;20999;-77
2022/08/29 02:14:12;;;;;;;4.87;4.47;;;;;;;;;;5034602;28;20498;-76
2022/08/29 02:16:41;;;;;;;12.27;4.00;;;;;;;;;;5034792;28;20435;-77
2022/08/29 02:19:08;;;;;;;5.47;3.27;;;;;;;;;;5034046;28;20439;-76
2022/08/29 02:21:35;;;;;;;3.73;3.40;;;;;;;;;;5033748;28;20533;-77
2022/08/29 02:24:04;;;;;;;29.17;5.43;;;;;;;;;;5033775;28;20937;-76
2022/08/29 02:26:31;;;;;;;4.40;3.00;;;;;;;;;;5033584;28;20479;-78
2022/08/29 02:28:59;;;;;;;12.70;3.47;;;;;;;;;;5033659;28;20457;-78
2022/08/29 02:31:27;;;;;;;9.73;3.67;;;;;;;;;;5033860;28;20550;-78
2022/08/29 02:33:55;;;;;;;6.73;3.70;;;;;;;;;;5034157;28;20443;-78
2022/08/29 02:36:23;;;;;;;9.23;4.00;;;;;;;;;;5033662;28;20569;-79
2022/08/29 02:38:50;;;;;;;8.27;3.23;;;;;;;;;;5033459;28;20454;-80
2022/08/29 02:41:17;;;;;;;6.90;4.33;;;;;;;;;;5033815;28;20960;-80
2022/08/29 02:43:45;;;;;;;7.37;4.00;;;;;;;;;;5034242;28;20435;-79
2022/08/29 02:46:16;;;;;;;5.50;3.73;;;;;;;;;;5033315;28;20458;-80
2022/08/29 02:48:43;;;;;;;5.47;3.67;;;;;;;;;;5034091;28;20440;-80
2022/08/29 02:51:18;;;;;;;8.13;4.10;;;;;;;;;;5033596;28;20515;-80
2022/08/29 02:53:45;;;;;;;5.60;3.60;;;;;;;;;;5033680;28;20785;-78
2022/08/29 02:56:13;;;;;;;12.43;4.27;;;;;;;;;;5033410;28;20484;-79
2022/08/29 02:58:40;;;;;;;4.50;4.10;;;;;;;;;;5033914;28;20447;-79
2022/08/29 03:01:07;;;;;;;7.00;4.03;;;;;;;;;;5033261;28;20474;-80
2022/08/29 03:03:35;;;;;;;8.87;4.37;;;;;;;;;;5034150;28;20465;-80
2022/08/29 03:06:02;;;;;;;4.20;3.17;;;;;;;;;;5033477;28;20498;-80
2022/08/29 03:08:31;;;;;;;4.23;3.43;;;;;;;;;;5033390;28;20529;-80
2022/08/29 03:10:58;;;;;;;4.73;3.23;;;;;;;;;;5033426;28;20518;-79
2022/08/29 03:13:25;;;;;;;9.77;4.50;;;;;;;;;;5033372;28;20478;-79
2022/08/29 03:15:53;;;;;;;8.70;4.30;;;;;;;;;;5033020;28;20474;-79
2022/08/29 03:18:20;;;;;;;12.10;4.53;;;;;;;;;;5033041;28;20447;-79
2022/08/29 03:20:47;;;;;;;8.90;3.77;;;;;;;;;;5033450;28;20482;-78
2022/08/29 03:23:15;;;;;;;6.97;5.03;;;;;;;;;;5034298;28;20448;-78
2022/08/29 03:25:43;;;;;;;5.83;4.10;;;;;;;;;;5037199;28;20454;-78
2022/08/29 03:28:10;;;;;;;6.97;4.57;;;;;;;;;;5037395;28;20525;-79
2022/08/29 03:30:38;;;;;;;5.63;4.27;;;;;;;;;;5036985;28;20952;-77
2022/08/29 03:33:05;;;;;;;7.73;4.90;;;;;;;;;;5037083;28;20438;-78
2022/08/29 03:35:32;;;;;;;4.90;4.00;;;;;;;;;;5037190;28;20509;-78
2022/08/29 03:38:00;;;;;;;6.60;4.13;;;;;;;;;;5037389;28;21019;-78
2022/08/29 03:40:28;;;;;;;9.47;5.13;;;;;;;;;;5037214;28;20455;-79
2022/08/29 03:42:56;;;;;;;6.67;4.60;;;;;;;;;;5036825;28;20542;-78
2022/08/29 03:45:25;;;;;;;5.70;5.17;;;;;;;;;;5036689;28;20806;-79
2022/08/29 03:47:53;;;;;;;8.83;4.73;;;;;;;;;;5036947;28;20442;-79
2022/08/29 03:50:20;;;;;;;6.90;4.90;;;;;;;;;;5037311;28;20879;-78
2022/08/29 03:52:48;;;;;;;9.50;4.67;;;;;;;;;;5036876;28;20619;-80
2022/08/29 03:55:15;;;;;;;12.13;4.80;;;;;;;;;;5036619;28;20474;-78
2022/08/29 03:57:44;;;;;;;5.10;4.17;;;;;;;;;;5036696;28;20448;-80
2022/08/29 04:00:15;;;;;;;14.10;4.77;;;;;;;;;;5036747;28;20484;-80
2022/08/29 04:02:43;;;;;;;8.40;5.50;;;;;;;;;;5036918;28;20784;-79
2022/08/29 04:05:11;;;;;;;11.77;5.80;;;;;;;;;;5035898;28;20442;-75
2022/08/29 04:07:42;;;;;;;12.90;5.57;;;;;;;;;;5036008;28;20478;-79
2022/08/29 04:10:10;;;;;;;7.43;6.13;;;;;;;;;;5035775;28;20519;-76
2022/08/29 04:12:38;;;;;;;10.73;5.80;;;;;;;;;;5035532;28;20530;-76
2022/08/29 04:15:06;;;;;;;8.47;5.77;;;;;;;;;;5035468;28;20954;-76
2022/08/29 04:17:36;;;;;;;9.93;5.83;;;;;;;;;;5035319;28;20521;-77
2022/08/29 04:20:04;;;;;;;7.93;5.27;;;;;;;;;;5035764;28;20442;-79
2022/08/29 04:22:31;;;;;;;11.70;6.00;;;;;;;;;;5036158;28;20443;-78
2022/08/29 04:24:58;;;;;;;8.80;5.70;;;;;;;;;;5035827;28;20507;-83
2022/08/29 04:27:25;;;;;;;8.40;5.53;;;;;;;;;;5035980;28;20439;-80
2022/08/29 04:29:53;;;;;;;8.80;6.10;;;;;;;;;;5036966;28;20500;-81
2022/08/29 04:32:20;;;;;;;9.80;6.17;;;;;;;;;;5035795;28;20533;-81
2022/08/29 04:34:49;;;;;;;6.07;5.00;;;;;;;;;;5035751;28;20530;-80
2022/08/29 04:37:16;;;;;;;11.07;5.50;;;;;;;;;;5036104;28;20515;-80
2022/08/29 04:39:43;;;;;;;9.50;5.70;;;;;;;;;;5035472;28;20545;-79
2022/08/29 04:42:12;;;;;;;8.33;5.97;;;;;;;;;;5035852;28;20529;-79
2022/08/29 04:44:39;;;;;;;12.80;5.70;;;;;;;;;;5035928;28;20454;-79
2022/08/29 04:47:07;;;;;;;11.23;5.70;;;;;;;;;;5035087;28;20449;-79
2022/08/29 04:49:34;;;;;;;5.83;5.20;;;;;;;;;;5035462;28;20481;-79
2022/08/29 04:52:03;;;;;;;6.03;5.53;;;;;;;;;;5035707;28;20445;-79
2022/08/29 04:54:30;;;;;;;9.97;6.47;;;;;;;;;;5035892;28;20461;-79
2022/08/29 04:57:02;;;;;;;9.10;6.15;;;;;;;;;;5035249;28;20984;-80
2022/08/29 04:59:29;;;;;;;7.63;5.47;;;;;;;;;;5035942;28;20563;-80
2022/08/29 05:01:57;;;;;;;10.47;5.60;;;;;;;;;;5035246;28;20450;-81
2022/08/29 05:04:25;;;;;;;6.73;4.97;;;;;;;;;;5035328;28;20803;-78
2022/08/29 05:06:52;;;;;;;6.97;5.23;;;;;;;;;;5034913;28;20446;-79
2022/08/29 05:09:20;;;;;;;12.40;5.53;;;;;;;;;;5035009;28;20954;-82
2022/08/29 05:11:48;;;;;;;12.57;5.53;;;;;;;;;;5035129;28;20438;-82
2022/08/29 05:14:15;;;;;;;8.80;5.10;;;;;;;;;;5035438;28;20806;-79
2022/08/29 05:16:42;;;;;;;7.87;5.10;;;;;;;;;;5034943;28;20485;-80
2022/08/29 05:19:10;;;;;;;7.07;5.20;;;;;;;;;;5034869;28;20487;-83
2022/08/29 05:21:39;;;;;;;6.17;5.00;;;;;;;;;;5034886;28;20454;-74
2022/08/29 05:24:07;;;;;;;6.63;5.30;;;;;;;;;;5035243;28;20446;-76
2022/08/29 05:26:37;;;;;;;8.70;5.07;;;;;;;;;;5035235;28;20541;-75
2022/08/29 05:29:05;;;;;;;21.50;5.83;;;;;;;;;;5035350;28;20430;-75
2022/08/29 05:31:32;;;;;;;6.80;4.70;;;;;;;;;;5034713;28;20929;-75
2022/08/29 05:33:59;;;;;;;15.33;5.50;;;;;;;;;;5034902;28;20438;-76
2022/08/29 05:36:27;;;;;;;9.33;5.67;;;;;;;;;;5035053;28;20900;-76
2022/08/29 05:38:54;;;;;;;8.40;5.33;;;;;;;;;;5034900;28;20446;-75
2022/08/29 05:41:22;;;;;;;11.17;5.13;;;;;;;;;;5034843;28;20449;-76
2022/08/29 05:43:52;;;;;;;11.90;5.30;;;;;;;;;;5034746;28;20490;-77
2022/08/29 05:46:19;;;;;;;9.43;4.93;;;;;;;;;;5033841;28;20431;-75
2022/08/29 05:48:47;;;;;;;8.87;5.57;;;;;;;;;;5034373;28;20502;-76
2022/08/29 05:51:18;;;;;;;12.97;6.00;;;;;;;;;;5034418;28;20505;-76
2022/08/29 05:53:46;;;;;;;8.40;5.13;;;;;;;;;;5034484;28;20486;-76
2022/08/29 05:56:20;;;;;;;7.67;5.47;;;;;;;;;;5034967;28;20485;-75
2022/08/29 05:58:47;;;;;;;12.90;6.20;;;;;;;;;;5034404;28;20922;-76
2022/08/29 06:01:20;;;;;;;14.50;5.60;;;;;;;;;;5034238;28;20470;-76
2022/08/29 06:03:47;;;;;;;9.50;5.40;;;;;;;;;;5034377;28;20514;-76
2022/08/29 06:06:14;;;;;;;7.07;4.73;;;;;;;;;;5034121;28;20454;-76
2022/08/29 06:08:42;;;;;;;6.50;4.60;;;;;;;;;;5033594;28;20469;-75
2022/08/29 06:11:14;;;;;;;8.53;4.53;;;;;;;;;;5033975;28;20485;-75
2022/08/29 06:13:41;;;;;;;8.47;5.10;;;;;;;;;;5034239;28;20443;-77
2022/08/29 06:16:11;;;;;;;11.53;4.97;;;;;;;;;;5034272;28;20563;-76
2022/08/29 06:18:40;;;;;;;12.13;4.63;;;;;;;;;;5033981;28;21055;-75
2022/08/29 06:21:07;;;;;;;8.33;4.20;;;;;;;;;;5034164;28;20533;-76
2022/08/29 06:23:35;;;;;;;12.67;4.87;;;;;;;;;;5034056;28;20444;-76
2022/08/29 06:26:02;;;;;;;7.20;4.20;;;;;;;;;;5033630;28;20447;-76
2022/08/29 06:28:30;;;;;;;12.67;5.33;;;;;;;;;;5033843;28;20530;-76
2022/08/29 06:30:57;;;;;;;6.83;4.80;;;;;;;;;;5033615;28;20530;-76
2022/08/29 06:33:25;;;;;;;6.70;4.03;;;;;;;;;;5034142;28;20534;-75
2022/08/29 06:35:54;;;;;;;5.63;4.00;;;;;;;;;;5033811;28;20527;-75
2022/08/29 06:38:21;;;;;;;9.17;4.63;;;;;;;;;;5033749;28;20447;-75
2022/08/29 06:40:49;;;;;;;6.03;4.07;;;;;;;;;;5033388;28;20507;-75
2022/08/29 06:43:16;;;;;;;4.80;3.77;;;;;;;;;;5033695;28;20458;-75
2022/08/29 06:45:44;;;;;;;14.27;6.10;;;;;;;;;;5033730;28;20478;-75
2022/08/29 06:48:11;;;;;;;12.97;5.40;;;;;;;;;;5033639;28;20532;-75
2022/08/29 06:50:39;;;;;;;9.60;3.80;;;;;;;;;;5033862;28;20469;-74
2022/08/29 06:53:08;;;;;;;8.77;3.90;;;;;;;;;;5033243;28;20535;-75
2022/08/29 06:55:35;;;;;;;7.10;3.67;;;;;;;;;;5033606;28;20489;-75
2022/08/29 06:58:02;;;;;;;12.37;4.97;;;;;;;;;;5033399;28;20489;-75
2022/08/29 07:00:29;;;;;;;9.13;4.10;;;;;;;;;;5033792;28;20485;-76
2022/08/29 07:02:57;;;;;;;10.17;3.90;;;;;;;;;;5033439;28;20518;-75
2022/08/29 07:05:24;;;;;;;7.73;3.53;;;;;;;;;;5033603;28;20439;-76
2022/08/29 07:07:52;;;;;;;12.67;5.97;;;;;;;;;;5033403;28;20449;-76
2022/08/29 07:10:20;;;;;;;8.67;3.70;;;;;;;;;;5033273;28;20575;-76
2022/08/29 07:12:48;;;;;;;6.40;3.50;;;;;;;;;;5033019;28;20452;-75
2022/08/29 07:15:15;;;;;;;8.60;4.17;;;;;;;;;;5033340;28;20518;-76
2022/08/29 07:17:42;;;;;;;6.03;3.23;;;;;;;;;;5033264;28;20517;-76
2022/08/29 07:20:10;;;;;;;9.30;3.50;;;;;;;;;;5033324;28;20506;-76
2022/08/29 07:22:37;;;;;;;8.57;3.57;;;;;;;;;;5033983;28;20875;-76
2022/08/29 07:25:05;;;;;;;7.67;4.27;;;;;;;;;;5033384;28;20525;-76
2022/08/29 07:27:35;;;;;;;5.43;3.60;;;;;;;;;;5033370;28;20989;-76
2022/08/29 07:30:03;;;;;;;8.63;3.87;;;;;;;;;;5033446;28;20451;-76
2022/08/29 07:32:30;;;;;;;5.33;3.90;;;;;;;;;;5032949;28;20440;-76
2022/08/29 07:34:57;;;;;;;9.50;4.37;;;;;;;;;;5033172;28;20846;-75
2022/08/29 07:37:25;;;;;;;5.40;4.07;;;;;;;;;;5033113;28;20518;-75
2022/08/29 07:39:52;;;;;;;5.67;3.80;;;;;;;;;;5032972;28;20496;-75
2022/08/29 07:42:20;;;;;;;5.90;3.60;;;;;;;;;;5033239;28;20526;-75
2022/08/29 07:44:48;;;;;;;12.03;4.50;;;;;;;;;;5033155;28;20523;-76
2022/08/29 07:47:15;;;;;;;9.93;4.17;;;;;;;;;;5033113;28;20531;-75
2022/08/29 07:49:43;;;;;;;7.67;4.10;;;;;;;;;;5032963;28;20472;-75
2022/08/29 07:52:10;;;;;;;6.53;3.60;;;;;;;;;;5033279;28;20528;-75
2022/08/29 07:54:38;;;;;;;10.87;3.10;;;;;;;;;;5032925;28;20432;-77
2022/08/29 07:57:05;;;;;;;4.93;3.70;;;;;;;;;;5032981;28;20509;-76
2022/08/29 07:59:32;;;;;;;12.77;4.27;;;;;;;;;;5032896;28;20488;-76
2022/08/29 08:02:02;;;;;;;8.33;3.70;;;;;;;;;;5033005;28;20474;-75
2022/08/29 08:04:29;;;;;;;6.30;3.90;;;;;;;;;;5033440;28;20444;-76
2022/08/29 08:06:57;;;;;;;9.43;4.23;;;;;;;;;;5032149;28;20494;-75
2022/08/29 08:09:24;;;;;;;8.20;4.87;;;;;;;;;;5032286;28;20478;-76
2022/08/29 08:11:51;;;;;;;8.10;3.73;;;;;;;;;;5036536;28;20485;-76
2022/08/29 08:14:18;;;;;;;9.20;4.03;;;;;;;;;;5036497;28;20449;-75
2022/08/29 08:16:46;;;;;;;6.10;4.00;;;;;;;;;;5036025;28;20481;-76
2022/08/29 08:19:15;;;;;;;6.43;4.13;;;;;;;;;;5036048;28;20491;-76
2022/08/29 08:21:42;;;;;;;9.20;3.67;;;;;;;;;;5036148;28;20449;-75
2022/08/29 08:24:09;;;;;;;6.47;3.53;;;;;;;;;;5036202;28;20542;-75
2022/08/29 08:26:37;;;;;;;5.37;3.50;;;;;;;;;;5035940;28;20946;-76
2022/08/29 08:29:04;;;;;;;6.30;3.83;;;;;;;;;;5036627;28;20501;-76
2022/08/29 08:31:32;;;;;;;5.47;3.93;;;;;;;;;;5036001;28;20452;-76
2022/08/29 08:33:59;;;;;;;9.63;4.60;;;;;;;;;;5036483;28;20497;-76
2022/08/29 08:36:29;;;;;;;4.70;4.00;;;;;;;;;;5035963;28;20502;-76
2022/08/29 08:38:58;;;;;;;10.33;4.50;;;;;;;;;;5036502;28;20476;-76
2022/08/29 08:41:31;;;;;;;11.30;4.07;;;;;;;;;;5036206;28;20826;-76
2022/08/29 08:44:01;;;;;;;7.60;4.70;;;;;;;;;;5035861;28;20476;-76
2022/08/29 08:46:30;;;;;;;11.23;3.83;;;;;;;;;;5035856;28;20444;-75
2022/08/29 08:49:00;;;;;;;4.83;3.20;;;;;;;;;;5035685;28;20475;-75
2022/08/29 08:51:31;;;;;;;8.30;4.00;;;;;;;;;;5035777;28;20432;-75
2022/08/29 08:53:59;;;;;;;6.10;3.80;;;;;;;;;;5036057;28;20814;-76
2022/08/29 08:56:36;;;;;;;8.17;3.97;;;;;;;;;;5035624;28;20535;-76
2022/08/29 08:59:06;;;;;;;5.33;3.73;;;;;;;;;;5035902;28;20482;-76
2022/08/29 09:01:34;;;;;;;6.33;3.70;;;;;;;;;;5035179;28;20925;-76
2022/08/29 09:04:24;;;;;;;5.23;3.80;;;;;;;;;;5035562;28;20559;-76
2022/08/29 09:06:59;;;;;;;6.60;3.77;;;;;;;;;;5035574;28;20953;-76
2022/08/29 09:09:30;;;;;;;9.00;3.60;;;;;;;;;;5035531;28;20498;-75
2022/08/29 09:12:03;;;;;;;9.60;3.70;;;;;;;;;;5035436;28;20439;-76
2022/08/29 09:14:39;;;;;;;6.20;3.80;;;;;;;;;;5035213;28;20422;-76
2022/08/29 09:17:08;;;;;;;6.10;3.63;;;;;;;;;;5035430;28;20470;-76
2022/08/29 09:19:36;;;;;;;5.27;3.27;;;;;;;;;;5035349;28;20850;-76
2022/08/29 09:22:10;;;;;;;8.90;3.77;;;;;;;;;;5033813;28;20453;-76
2022/08/29 09:24:40;;;;;;;7.40;3.83;;;;;;;;;;5035340;28;20545;-76
2022/08/29 09:27:08;;;;;;;11.53;3.83;;;;;;;;;;5034893;28;20433;-76
2022/08/29 09:29:36;;;;;;;14.40;3.83;;;;;;;;;;5035335;28;20850;-76
2022/08/29 09:32:08;;;;;;;5.43;3.37;;;;;;;;;;5035000;28;20480;-75
2022/08/29 09:34:37;;;;;;;6.93;3.63;;;;;;;;;;5035142;28;20806;-75
2022/08/29 09:37:16;;;;;;;6.77;3.53;;;;;;;;;;5034902;28;20487;-75
2022/08/29 09:39:53;;;;;;;4.90;3.40;;;;;;;;;;5035297;28;20451;-75
2022/08/29 09:42:22;;;;;;;5.67;3.20;;;;;;;;;;5034811;28;20464;-76
2022/08/29 09:44:53;;;;;;;5.27;3.30;;;;;;;;;;5034599;28;20773;-77
2022/08/29 09:47:22;;;;;;;8.93;3.73;;;;;;;;;;5034741;28;20430;-75
2022/08/29 09:50:01;;;;;;;7.00;3.83;;;;;;;;;;5034801;28;20823;-76
2022/08/29 09:52:29;;;;;;;7.80;3.67;;;;;;;;;;5034400;28;20436;-76
2022/08/29 09:54:57;;;;;;;15.20;5.00;;;;;;;;;;5034580;28;20486;-76
2022/08/29 09:57:26;;;;;;;6.13;3.87;;;;;;;;;;5034428;28;20526;-75
2022/08/29 10:00:09;;;;;;;7.20;3.10;;;;;;;;;;5034203;28;20444;-75
2022/08/29 10:02:38;;;;;;;4.80;3.67;;;;;;;;;;5034576;28;20450;-76
2022/08/29 10:05:08;;;;;;;7.93;3.43;;;;;;;;;;5034761;28;20445;-75
2022/08/29 10:07:46;;;;;;;3.97;2.63;;;;;;;;;;5034547;28;20502;-76
2022/08/29 10:10:17;;;;;;;8.63;3.83;;;;;;;;;;5034186;28;20477;-75
2022/08/29 10:12:47;;;;;;;6.40;3.20;;;;;;;;;;5034583;28;20436;-75
2022/08/29 10:15:17;;;;;;;4.07;3.47;;;;;;;;;;5034528;28;20479;-75
2022/08/29 10:20:41;;;;;;;5.37;3.20;;;;;;;;;;5034019;28;20458;-75
2022/08/29 10:23:14;;;;;;;5.40;3.47;;;;;;;;;;5034352;28;20451;-75
2022/08/29 10:25:43;;;;;;;3.67;2.97;;;;;;;;;;5034027;28;20531;-75
2022/08/29 10:28:15;;;;;;;11.90;3.67;;;;;;;;;;5033743;28;20503;-75
2022/08/29 10:30:47;;;;;;;4.10;3.00;;;;;;;;;;5033635;28;20436;-75
2022/08/29 10:33:20;;;;;;;4.93;2.80;;;;;;;;;;5034329;28;20435;-75
2022/08/29 10:35:52;;;;;;;9.30;3.37;;;;;;;;;;5033581;28;20481;-74
2022/08/29 10:38:23;;;;;;;3.93;3.10;;;;;;;;;;5034134;28;20472;-75
2022/08/29 10:40:53;;;;;;;4.60;2.90;;;;;;;;;;5033524;28;20472;-75
2022/08/29 10:43:26;;;;;;;4.13;2.90;;;;;;;;;;5033456;28;21007;-76
2022/08/29 10:46:00;;;;;;;6.10;3.17;;;;;;;;;;5034134;28;20779;-75
2022/08/29 10:48:30;;;;;;;10.73;3.50;;;;;;;;;;5033944;28;20784;-76
2022/08/29 10:51:06;;;;;;;4.93;3.10;;;;;;;;;;5033417;28;20980;-75
2022/08/29 10:53:36;;;;;;;4.90;3.20;;;;;;;;;;5034289;28;20432;-76
2022/08/29 10:56:08;;;;;;;10.93;3.80;;;;;;;;;;5033112;28;20544;-75
2022/08/29 10:58:40;;;;;;;10.03;4.70;;;;;;;;;;5033960;28;20465;-75
2022/08/29 11:01:10;;;;;;;7.30;4.53;;;;;;;;;;5033681;28;20469;-75
2022/08/29 11:03:40;;;;;;;7.80;3.50;;;;;;;;;;5033323;28;20484;-75
2022/08/29 11:06:10;;;;;;;4.00;3.40;;;;;;;;;;5033572;28;20513;-76
2022/08/29 11:08:40;;;;;;;9.93;3.30;;;;;;;;;;5033236;28;20552;-76
2022/08/29 11:11:09;;;;;;;6.23;3.60;;;;;;;;;;5033334;28;20448;-75
2022/08/29 11:13:40;;;;;;;6.13;3.10;;;;;;;;;;5033127;28;20484;-76
2022/08/29 11:16:09;;;;;;;7.27;3.70;;;;;;;;;;5033569;28;20822;-75
2022/08/29 11:18:40;;;;;;;5.07;3.50;;;;;;;;;;5032952;28;20561;-76
2022/08/29 11:21:13;;;;;;;5.23;3.03;;;;;;;;;;5033319;28;20442;-75
2022/08/29 11:23:41;;;;;;;5.67;2.70;;;;;;;;;;5033309;28;20489;-75
2022/08/29 11:26:17;;;;;;;9.00;3.50;;;;;;;;;;5033507;28;20443;-76
2022/08/29 11:28:49;;;;;;;5.53;3.13;;;;;;;;;;5033582;28;20426;-76
2022/08/29 11:31:18;;;;;;;6.20;3.20;;;;;;;;;;5033432;28;20431;-76
2022/08/29 11:33:48;;;;;;;5.80;4.07;;;;;;;;;;5032836;28;20447;-76
2022/08/29 11:36:25;;;;;;;5.40;3.10;;;;;;;;;;5033301;28;20425;-75
2022/08/29 11:39:00;;;;;;;5.20;3.03;;;;;;;;;;5032747;28;20543;-76
2022/08/29 11:41:30;;;;;;;4.17;3.23;;;;;;;;;;5032914;28;20915;-75
2022/08/29 11:44:04;;;;;;;5.20;3.00;;;;;;;;;;5033094;28;20494;-75
2022/08/29 11:46:36;;;;;;;5.40;3.17;;;;;;;;;;5036781;28;20518;-76
2022/08/29 11:49:36;;;;;;;4.73;2.73;;;;;;;;;;5037126;28;20454;-75
2022/08/29 11:52:24;;;;;;;9.77;4.13;;;;;;;;;;4975700;28;20660;-75
2022/08/29 11:55:10;;;;;;;8.53;4.80;;;;;;;;;;4975671;28;20458;-75
2022/08/29 11:57:45;;;;;;;8.67;3.90;;;;;;;;;;5019755;28;20524;-75
2022/08/29 12:00:39;;;;;;;8.23;3.50;;;;;;;;;;5037164;28;20434;-75
2022/08/29 12:03:27;;;;;;;5.80;3.33;;;;;;;;;;5001689;28;20451;-74
2022/08/29 12:05:59;;;;;;;6.80;3.27;;;;;;;;;;5036369;28;20543;-75
2022/08/29 12:08:31;;;;;;;6.00;2.80;;;;;;;;;;5036291;28;20533;-75
2022/08/29 12:11:00;;;;;;;5.93;3.73;;;;;;;;;;5036981;28;20843;-75
2022/08/29 12:13:45;;;;;;;8.73;2.97;;;;;;;;;;5036630;28;20444;-75
2022/08/29 12:16:15;;;;;;;5.70;3.47;;;;;;;;;;5036545;28;20483;-75
2022/08/29 12:18:46;;;;;;;8.93;4.17;;;;;;;;;;5035954;28;20708;-74
2022/08/29 12:21:33;;;;;;;4.83;2.73;;;;;;;;;;5036681;28;20435;-75
2022/08/29 12:24:00;;;;;;;8.07;3.67;;;;;;;;;;5036494;28;20778;-74
2022/08/29 12:26:41;;;;;;;4.90;3.20;;;;;;;;;;5036705;28;20519;-75
2022/08/29 12:29:16;;;;;;;7.07;3.00;;;;;;;;;;5036365;28;20451;-75
2022/08/29 12:32:02;;;;;;;8.27;3.20;;;;;;;;;;5036342;28;20431;-75
2022/08/29 12:34:35;;;;;;;4.30;2.70;;;;;;;;;;5036206;28;20432;-75
2022/08/29 12:37:15;;;;;;;6.60;2.90;;;;;;;;;;5036084;28;20912;-75
2022/08/29 12:39:53;;;;;;;5.93;3.37;;;;;;;;;;5035741;28;20993;-74
2022/08/29 12:42:27;;;;;;;8.77;4.73;;;;;;;;;;5035862;28;20429;-74
2022/08/29 12:44:59;;;;;;;5.47;3.50;;;;;;;;;;5035579;28;21015;-75
2022/08/29 12:47:29;;;;;;;6.23;2.30;;;;;;;;;;5035559;28;20429;-74
2022/08/29 12:49:59;;;;;;;8.03;3.23;;;;;;;;;;5036733;28;20850;-75
2022/08/29 12:52:27;;;;;;;5.97;3.80;;;;;;;;;;5035834;28;20445;-75
2022/08/29 12:54:54;;;;;;;5.40;3.20;;;;;;;;;;5036217;28;20843;-74
2022/08/29 12:57:23;;;;;;;6.27;2.90;;;;;;;;;;5035144;28;20921;-72
2022/08/29 12:59:52;;;;;;;5.63;4.07;;;;;;;;;;5035365;28;20480;-78
2022/08/29 13:02:30;;;;;;;8.53;3.40;;;;;;;;;;5035333;28;20479;-77
2022/08/29 13:04:57;;;;;;;5.87;2.70;;;;;;;;;;5035628;28;20421;-78
2022/08/29 13:07:25;;;;;;;3.70;2.50;;;;;;;;;;5035952;28;20453;-79
2022/08/29 13:09:53;;;;;;;3.50;3.17;;;;;;;;;;5035652;28;20505;-78
2022/08/29 13:12:22;;;;;;;3.93;2.87;;;;;;;;;;5035595;28;20534;-77
2022/08/29 13:14:51;;;;;;;6.50;3.10;;;;;;;;;;5035220;28;20492;-76
2022/08/29 13:17:19;;;;;;;3.33;2.60;;;;;;;;;;5035478;28;20523;-77
2022/08/29 13:20:01;;;;;;;3.23;2.60;;;;;;;;;;5035280;28;20563;-77
2022/08/29 13:22:30;;;;;;;3.70;2.70;;;;;;;;;;5034608;28;20915;-77
2022/08/29 13:25:02;;;;;;;5.43;3.17;;;;;;;;;;5034904;28;20445;-77
2022/08/29 13:27:30;;;;;;;3.53;2.90;;;;;;;;;;5034902;28;20430;-77
2022/08/29 13:30:00;;;;;;;6.80;4.27;;;;;;;;;;5034531;28;20954;-78
2022/08/29 13:32:27;;;;;;;6.57;3.00;;;;;;;;;;5034535;28;20448;-78
2022/08/29 13:35:06;;;;;;;3.43;3.10;;;;;;;;;;5034612;28;20437;-77
2022/08/29 13:37:36;;;;;;;3.27;2.60;;;;;;;;;;5034467;28;20460;-77
2022/08/29 13:40:21;;;;;;;7.10;2.97;;;;;;;;;;5034081;28;20856;-77
2022/08/29 13:42:48;;;;;;;6.27;3.20;;;;;;;;;;5034260;28;20523;-74
2022/08/29 13:45:21;;;;;;;4.93;2.70;;;;;;;;;;5034076;28;20845;-76
2022/08/29 13:47:54;;;;;;;10.30;3.03;;;;;;;;;;5033803;28;20458;-77
2022/08/29 13:50:22;;;;;;;3.50;2.53;;;;;;;;;;5033637;28;20473;-76
2022/08/29 13:52:53;;;;;;;4.87;3.27;;;;;;;;;;5034154;28;20476;-76
2022/08/29 13:55:20;;;;;;;6.73;2.80;;;;;;;;;;5033637;28;20917;-76
2022/08/29 13:57:50;;;;;;;5.80;3.53;;;;;;;;;;5034411;28;20455;-76
2022/08/29 14:00:17;;;;;;;4.93;3.33;;;;;;;;;;5033996;28;20445;-75
2022/08/29 14:02:45;;;;;;;4.90;2.73;;;;;;;;;;5034002;28;20484;-76
2022/08/29 14:05:13;;;;;;;7.90;3.40;;;;;;;;;;5034489;28;20634;-78
2022/08/29 14:07:41;;;;;;;3.20;2.83;;;;;;;;;;5033446;28;20454;-76
2022/08/29 14:10:11;;;;;;;4.20;3.20;;;;;;;;;;5033834;28;20539;-76
2022/08/29 14:12:39;;;;;;;3.30;2.70;;;;;;;;;;5034392;28;20501;-76
2022/08/29 14:15:08;;;;;;;4.73;2.70;;;;;;;;;;5034368;28;20458;-77
2022/08/29 14:17:36;;;;;;;10.87;3.00;;;;;;;;;;5034236;28;20447;-76
2022/08/29 14:20:03;;;;;;;5.03;2.90;;;;;;;;;;5033127;28;20515;-76
2022/08/29 14:22:31;;;;;;;6.37;2.80;;;;;;;;;;5033527;28;20443;-76
2022/08/29 14:24:59;;;;;;;4.50;3.20;;;;;;;;;;5033553;28;20544;-76
2022/08/29 14:27:28;;;;;;;3.70;2.67;;;;;;;;;;5034332;28;20473;-75
2022/08/29 14:29:56;;;;;;;3.27;2.50;;;;;;;;;;5033581;28;20457;-75
2022/08/29 14:32:24;;;;;;;4.20;3.07;;;;;;;;;;5033893;28;20445;-75
2022/08/29 14:34:51;;;;;;;4.37;3.13;;;;;;;;;;5034049;28;20478;-75
2022/08/29 14:37:19;;;;;;;4.30;3.00;;;;;;;;;;5033542;28;20529;-75
2022/08/29 14:39:46;;;;;;;4.33;3.00;;;;;;;;;;5033385;28;20503;-75
2022/08/29 14:42:13;;;;;;;4.23;2.77;;;;;;;;;;5033182;28;20536;-75
2022/08/29 14:44:42;;;;;;;8.50;3.27;;;;;;;;;;5033597;28;20446;-75
2022/08/29 14:47:09;;;;;;;3.60;3.10;;;;;;;;;;5033640;28;20445;-75
2022/08/29 14:49:36;;;;;;;4.00;2.87;;;;;;;;;;5033843;28;20798;-75
2022/08/29 14:52:04;;;;;;;4.80;2.93;;;;;;;;;;5033752;28;20535;-75
2022/08/29 14:54:32;;;;;;;3.27;2.97;;;;;;;;;;5033225;28;20443;-76
2022/08/29 14:56:59;;;;;;;3.00;2.50;;;;;;;;;;5033776;28;20484;-76
2022/08/29 14:59:26;;;;;;;6.00;3.50;;;;;;;;;;5033360;28;20480;-75